Time;durP1;ratioP1;P1;durP2;ratioP2;P2;SDS_P1;SDS_P2;PMS_P1;PMS_P2;Temp;Humidity;BMP_temperature;BMP_pressure;BME280_temperature;BME280_humidity;BME280_pressure;Samples;Min_cycle;Max_cycle;Signal;HPM_P1;HPM_P2
2023/11/16 00:01:30;;;;;;;9.13;1.90;;;10.80;99.90;;;;;;4901725;29;20025;-90
2023/11/16 00:03:56;;;;;;;7.85;1.58;;;10.90;99.90;;;;;;4886885;29;20037;-92
2023/11/16 00:06:21;;;;;;;5.63;1.85;;;10.80;99.90;;;;;;4921194;29;20406;-91
2023/11/16 00:08:47;;;;;;;5.07;2.45;;;10.80;99.90;;;;;;4921274;29;20032;-90
2023/11/16 00:11:17;;;;;;;5.43;2.00;;;10.90;99.90;;;;;;4920694;29;20020;-90
2023/11/16 00:13:44;;;;;;;7.28;2.40;;;10.90;99.90;;;;;;4926147;29;20080;-90
2023/11/16 00:16:16;;;;;;;4.53;1.95;;;10.80;99.90;;;;;;4938510;29;20066;-91
2023/11/16 00:18:42;;;;;;;10.50;2.28;;;10.90;99.90;;;;;;4944616;29;20024;-91
2023/11/16 00:21:09;;;;;;;6.40;2.25;;;10.80;99.90;;;;;;4926683;29;20092;-91
2023/11/16 00:23:35;;;;;;;4.50;1.63;;;10.80;99.90;;;;;;4904864;29;20029;-91
2023/11/16 00:26:02;;;;;;;4.68;1.80;;;10.80;99.90;;;;;;4906524;29;20449;-92
2023/11/16 00:28:30;;;;;;;6.05;2.35;;;10.80;99.90;;;;;;4906230;29;20047;-91
2023/11/16 00:30:56;;;;;;;6.38;1.90;;;10.80;99.90;;;;;;4901093;29;20032;-91
2023/11/16 00:33:25;;;;;;;5.32;1.67;;;10.80;99.90;;;;;;4912397;29;20050;-91
2023/11/16 00:35:55;;;;;;;3.40;1.42;;;10.80;99.90;;;;;;4929247;29;20032;-90
2023/11/16 00:38:23;;;;;;;4.68;1.60;;;10.90;99.90;;;;;;4910106;29;20032;-92
2023/11/16 00:40:54;;;;;;;4.72;1.70;;;10.80;99.90;;;;;;4905217;29;20128;-92
2023/11/16 00:43:19;;;;;;;;;;;10.80;99.90;;;;;;4922970;29;20040;-90
2023/11/16 00:45:45;;;;;;;6.63;2.10;;;10.80;99.90;;;;;;4918082;29;19966;-92
2023/11/16 00:48:11;;;;;;;4.10;1.50;;;10.80;99.90;;;;;;4885955;29;20033;-90
2023/11/16 00:50:39;;;;;;;6.82;1.90;;;10.80;99.90;;;;;;4905268;29;20028;-93
2023/11/16 00:53:05;;;;;;;4.55;1.70;;;10.80;99.90;;;;;;4916550;29;20032;-91
2023/11/16 00:55:33;;;;;;;7.35;2.20;;;10.80;99.90;;;;;;4900893;29;20460;-90
2023/11/16 00:57:59;;;;;;;5.95;2.20;;;10.80;99.90;;;;;;4918172;29;20043;-90
2023/11/16 01:00:31;;;;;;;7.80;3.55;;;10.80;99.90;;;;;;4901228;29;20041;-89
2023/11/16 01:03:07;;;;;;;6.50;1.77;;;10.80;99.90;;;;;;4907256;29;20025;-86
2023/11/16 01:05:36;;;;;;;4.18;1.75;;;10.80;99.90;;;;;;4925312;29;20088;-91
2023/11/16 01:08:03;;;;;;;6.05;1.90;;;10.80;99.90;;;;;;4919087;29;20136;-90
2023/11/16 01:10:29;;;;;;;7.25;1.85;;;10.80;99.90;;;;;;4888771;29;20099;-90
2023/11/16 01:12:56;;;;;;;6.22;1.65;;;10.80;99.90;;;;;;4900985;29;20048;-89
2023/11/16 01:15:24;;;;;;;4.80;1.80;;;10.80;99.90;;;;;;4913902;29;20028;-89
2023/11/16 01:17:53;;;;;;;5.82;2.08;;;10.80;99.90;;;;;;4901239;29;20052;-91
2023/11/16 01:20:22;;;;;;;6.03;2.47;;;10.90;99.90;;;;;;4913704;29;20132;-91
2023/11/16 01:23:01;;;;;;;7.95;2.15;;;10.80;99.90;;;;;;4916105;29;20493;-88
2023/11/16 01:25:27;;;;;;;5.95;1.90;;;10.90;99.90;;;;;;4915692;29;20028;-88
2023/11/16 01:27:57;;;;;;;6.00;2.08;;;10.90;99.90;;;;;;4916352;29;20063;-88
2023/11/16 01:30:28;;;;;;;8.15;2.33;;;10.90;99.90;;;;;;4901732;29;20028;-89
2023/11/16 01:32:54;;;;;;;5.15;1.90;;;10.80;99.90;;;;;;4916440;29;20025;-89
2023/11/16 01:35:25;;;;;;;5.20;2.10;;;10.80;99.90;;;;;;4916218;29;20480;-89
2023/11/16 01:37:52;;;;;;;;;;;10.80;99.90;;;;;;4915838;29;20037;-89
2023/11/16 01:40:27;;;;;;;3.97;1.73;;;10.80;99.90;;;;;;4915372;29;19915;-89
2023/11/16 01:43:00;;;;;;;8.45;2.80;;;10.70;99.90;;;;;;4915261;29;20029;-89
2023/11/16 01:45:30;;;;;;;6.25;2.13;;;10.70;99.90;;;;;;4902879;29;20032;-90
2023/11/16 01:48:09;;;;;;;8.45;2.53;;;10.80;99.90;;;;;;4923462;29;20048;-89
2023/11/16 01:50:48;;;;;;;7.53;1.90;;;10.80;99.90;;;;;;4936195;29;20019;-88
2023/11/16 01:53:18;;;;;;;9.38;2.20;;;10.70;99.90;;;;;;4938678;29;20029;-89
2023/11/16 01:55:46;;;;;;;7.07;2.33;;;10.70;99.90;;;;;;4938796;29;20024;-89
2023/11/16 01:58:15;;;;;;;6.15;2.30;;;10.70;99.90;;;;;;4928203;29;20035;-89
2023/11/16 02:00:42;;;;;;;6.13;2.20;;;10.70;99.90;;;;;;4916003;29;20037;-88
2023/11/16 02:03:18;;;;;;;6.15;2.20;;;10.70;99.90;;;;;;4915648;29;20077;-89
2023/11/16 02:05:47;;;;;;;6.40;2.25;;;10.70;99.90;;;;;;4915643;29;20052;-90
2023/11/16 02:08:15;;;;;;;5.65;1.88;;;10.70;99.90;;;;;;4915423;29;20426;-90
2023/11/16 02:10:52;;;;;;;8.00;1.92;;;10.70;99.90;;;;;;4899293;29;20132;-89
2023/11/16 02:13:23;;;;;;;5.85;2.15;;;10.70;99.90;;;;;;4915333;29;20084;-88
2023/11/16 02:15:55;;;;;;;5.60;2.00;;;10.80;99.90;;;;;;4915883;29;20021;-88
2023/11/16 02:18:29;;;;;;;6.32;2.30;;;10.80;99.90;;;;;;4915489;29;20433;-89
2023/11/16 02:21:00;;;;;;;5.50;1.90;;;10.80;99.90;;;;;;4915447;29;20119;-89
2023/11/16 02:23:31;;;;;;;6.53;1.83;;;10.80;99.90;;;;;;4914680;29;20032;-88
2023/11/16 02:26:09;;;;;;;4.60;1.73;;;10.80;99.90;;;;;;4915165;29;20021;-89
2023/11/16 02:28:36;;;;;;;6.15;2.13;;;10.80;99.90;;;;;;4900128;29;20047;-89
2023/11/16 02:31:06;;;;;;;5.45;1.90;;;10.80;99.90;;;;;;4915159;29;20032;-89
2023/11/16 02:33:35;;;;;;;4.63;2.00;;;10.80;99.90;;;;;;4899956;29;20119;-89
2023/11/16 02:36:04;;;;;;;8.27;2.42;;;10.80;99.90;;;;;;4914617;29;20533;-90
2023/11/16 02:38:53;;;;;;;5.15;2.13;;;10.80;99.90;;;;;;4914522;29;20028;-89
2023/11/16 02:41:32;;;;;;;6.70;2.08;;;10.80;99.90;;;;;;4914710;29;20032;-90
2023/11/16 02:43:57;;;;;;;6.78;2.60;;;10.80;99.90;;;;;;4899991;29;20025;-89
2023/11/16 02:46:44;;;;;;;7.60;2.22;;;10.80;99.90;;;;;;4914479;29;20036;-88
2023/11/16 02:49:11;;;;;;;6.22;1.95;;;10.90;99.90;;;;;;4914647;29;20036;-89
2023/11/16 02:51:38;;;;;;;6.95;2.25;;;10.80;99.90;;;;;;4914274;29;20104;-89
2023/11/16 02:54:06;;;;;;;4.95;1.95;;;10.80;99.90;;;;;;4914842;29;20036;-89
2023/11/16 02:56:50;;;;;;;;;;;;;;;;;;;;;
2023/11/16 02:59:20;;;;;;;6.22;2.10;;;10.90;99.90;;;;;;4912845;29;20047;-89
2023/11/16 03:01:45;;;;;;;6.22;1.98;;;10.80;99.90;;;;;;4914365;29;20515;-89
2023/11/16 03:04:21;;;;;;;5.80;2.30;;;10.80;99.90;;;;;;4897983;29;20053;-88
2023/11/16 03:07:02;;;;;;;5.90;2.40;;;10.80;99.90;;;;;;4898948;29;20033;-89
2023/11/16 03:09:37;;;;;;;6.07;2.10;;;10.80;99.90;;;;;;4914838;29;20052;-89
2023/11/16 03:12:09;;;;;;;5.57;2.28;;;10.80;99.90;;;;;;4898681;29;20036;-90
2023/11/16 03:14:41;;;;;;;4.68;2.40;;;10.80;99.90;;;;;;4914985;29;20029;-90
2023/11/16 03:17:11;;;;;;;7.97;2.15;;;10.80;99.90;;;;;;4915762;29;20137;-90
2023/11/16 03:19:42;;;;;;;3.85;2.00;;;10.80;99.90;;;;;;4918317;29;20067;-89
2023/11/16 03:22:25;;;;;;;7.60;2.53;;;10.80;99.90;;;;;;4920981;29;20025;-89
2023/11/16 03:24:52;;;;;;;5.88;2.65;;;10.80;99.90;;;;;;4922575;29;20013;-88
2023/11/16 03:27:21;;;;;;;5.05;2.17;;;10.80;99.90;;;;;;4937500;29;20035;-86
2023/11/16 03:29:54;;;;;;;5.32;2.58;;;10.80;99.90;;;;;;4922662;29;20013;-90
2023/11/16 03:32:27;;;;;;;5.38;2.53;;;10.80;99.90;;;;;;4928451;29;20044;-90
2023/11/16 03:34:53;;;;;;;5.53;2.92;;;10.80;99.90;;;;;;4920683;29;20032;-89
2023/11/16 03:37:22;;;;;;;5.72;2.70;;;10.80;99.90;;;;;;4918890;29;20020;-89
2023/11/16 03:39:52;;;;;;;6.35;2.80;;;10.80;99.90;;;;;;4900214;29;20501;-89
2023/11/16 03:42:20;;;;;;;6.05;2.40;;;10.80;99.90;;;;;;4913971;29;20029;-89
2023/11/16 03:44:53;;;;;;;8.85;3.30;;;10.80;99.90;;;;;;4898846;29;20077;-89
2023/11/16 03:47:35;;;;;;;;;;;;;;;;;;;;;
2023/11/16 03:50:10;;;;;;;7.70;3.17;;;10.80;99.90;;;;;;4913209;29;20040;-89
2023/11/16 03:52:41;;;;;;;6.78;2.72;;;10.70;99.90;;;;;;4899523;29;20067;-89
2023/11/16 03:55:12;;;;;;;7.43;2.97;;;10.70;99.90;;;;;;4914642;29;20025;-90
2023/11/16 03:57:50;;;;;;;5.70;2.90;;;10.70;99.90;;;;;;4898410;29;20097;-88
2023/11/16 04:00:21;;;;;;;8.18;2.80;;;10.70;99.90;;;;;;4914196;29;20065;-88
2023/11/16 04:02:49;;;;;;;6.32;2.78;;;10.70;99.90;;;;;;4914171;29;20500;-89
2023/11/16 04:05:21;;;;;;;6.10;3.20;;;10.70;99.90;;;;;;4913794;29;20053;-89
2023/11/16 04:07:47;;;;;;;6.50;2.72;;;10.60;99.90;;;;;;4882521;29;20384;-89
2023/11/16 04:10:21;;;;;;;6.75;2.80;;;10.60;99.90;;;;;;4913658;29;20032;-88
2023/11/16 04:12:50;;;;;;;7.43;2.97;;;10.60;99.90;;;;;;4913687;29;20032;-89
2023/11/16 04:15:28;;;;;;;5.93;2.95;;;10.60;99.90;;;;;;4913834;29;20417;-88
2023/11/16 04:18:00;;;;;;;5.22;2.60;;;10.60;99.90;;;;;;4914118;29;20029;-90
2023/11/16 04:20:29;;;;;;;8.07;2.65;;;10.60;99.90;;;;;;4913685;29;20036;-87
2023/11/16 04:23:07;;;;;;;6.07;2.70;;;10.50;99.90;;;;;;4914085;29;20361;-89
2023/11/16 04:25:36;;;;;;;8.52;3.03;;;10.50;99.90;;;;;;4913632;29;20056;-89
2023/11/16 04:28:14;;;;;;;;;;;;;;;;;;;;;
2023/11/16 04:30:40;;;;;;;5.60;2.35;;;10.50;99.90;;;;;;4899059;29;20039;-89
2023/11/16 04:33:09;;;;;;;6.72;3.03;;;10.50;99.90;;;;;;4913248;29;20108;-89
2023/11/16 04:35:37;;;;;;;8.30;2.92;;;10.50;99.90;;;;;;4916559;29;20029;-89
2023/11/16 04:38:15;;;;;;;;;;;;;;;;;;;;;
2023/11/16 04:40:44;;;;;;;6.70;3.03;;;10.50;99.90;;;;;;4902566;29;20033;-90
2023/11/16 04:43:15;;;;;;;5.18;2.60;;;10.40;99.90;;;;;;4916926;29;20116;-90
2023/11/16 04:45:52;;;;;;;4.07;2.83;;;10.40;99.90;;;;;;4917365;29;20138;-89
2023/11/16 04:48:23;;;;;;;5.20;2.53;;;10.40;99.90;;;;;;4918873;29;20421;-89
2023/11/16 04:50:50;;;;;;;;;;;10.40;99.90;;;;;;4906693;29;20096;-89
2023/11/16 04:53:27;;;;;;;4.88;2.25;;;10.30;99.90;;;;;;4931888;29;19907;-88
2023/11/16 04:55:53;;;;;;;5.47;3.05;;;10.30;99.90;;;;;;4939414;29;20033;-90
2023/11/16 04:58:21;;;;;;;6.85;2.97;;;10.30;99.90;;;;;;4938511;29;20028;-88
2023/11/16 05:01:09;;;;;;;7.40;2.90;;;10.20;99.90;;;;;;4995177;27;4038497;-88
2023/11/16 05:03:35;;;;;;;5.97;2.70;;;10.20;99.90;;;;;;5125988;28;20035;-89
2023/11/16 05:06:02;;;;;;;5.63;2.95;;;10.20;99.90;;;;;;5094986;28;20032;-89
2023/11/16 05:08:28;;;;;;;5.55;2.88;;;10.30;99.90;;;;;;5112494;28;20031;-89
2023/11/16 05:10:58;;;;;;;6.07;2.90;;;10.20;99.90;;;;;;5093406;28;20039;-89
2023/11/16 05:13:30;;;;;;;6.57;2.63;;;10.20;99.90;;;;;;5092736;28;20177;-89
2023/11/16 05:15:55;;;;;;;;;;;10.20;99.90;;;;;;5094350;28;20616;-89
2023/11/16 05:18:22;;;;;;;5.55;2.60;;;10.20;99.90;;;;;;5093584;28;19986;-88
2023/11/16 05:20:48;;;;;;;9.10;3.13;;;10.20;99.90;;;;;;5093457;28;20030;-90
2023/11/16 05:26:34;;;;;;;4.82;2.58;;;10.10;99.90;;;;;;5045647;28;20119;-89
2023/11/16 05:29:00;;;;;;;5.30;3.35;;;10.10;99.90;;;;;;5102718;28;20039;-89
2023/11/16 05:31:26;;;;;;;8.40;3.30;;;10.10;99.90;;;;;;5093381;28;20016;-90
2023/11/16 05:33:57;;;;;;;4.93;2.47;;;10.10;99.90;;;;;;5093660;28;20566;-88
2023/11/16 05:36:29;;;;;;;8.87;2.67;;;10.10;99.90;;;;;;5093668;28;20047;-90
2023/11/16 05:39:00;;;;;;;9.40;2.97;;;10.10;99.90;;;;;;5077265;28;20063;-88
2023/11/16 05:41:27;;;;;;;;;;;10.10;99.90;;;;;;5094223;28;20031;-90
2023/11/16 05:43:53;;;;;;;5.07;2.30;;;10.10;99.90;;;;;;5093374;28;19944;-91
2023/11/16 05:46:19;;;;;;;4.53;2.55;;;10.10;99.90;;;;;;5076560;28;20028;-88
2023/11/16 05:48:50;;;;;;;6.72;2.88;;;10.10;99.90;;;;;;5092889;28;20092;-89
2023/11/16 05:51:19;;;;;;;6.45;3.08;;;10.10;99.90;;;;;;5093975;28;20015;-90
2023/11/16 05:53:45;;;;;;;3.72;2.53;;;10.00;99.90;;;;;;5092727;28;20043;-89
2023/11/16 05:56:11;;;;;;;4.43;2.92;;;10.00;99.90;;;;;;5076227;28;20456;-91
2023/11/16 05:58:38;;;;;;;7.25;3.40;;;10.00;99.90;;;;;;5075634;28;20023;-90
2023/11/16 06:01:13;;;;;;;6.68;3.00;;;10.00;99.90;;;;;;5093185;28;20059;-90
2023/11/16 06:03:42;;;;;;;7.47;3.03;;;9.90;99.90;;;;;;5077408;28;20024;-88
2023/11/16 06:06:08;;;;;;;4.32;2.50;;;9.90;99.90;;;;;;5092931;28;20020;-90
2023/11/16 06:08:39;;;;;;;7.00;3.05;;;9.90;99.90;;;;;;5092485;28;20036;-88
2023/11/16 06:11:08;;;;;;;8.30;3.78;;;9.90;99.90;;;;;;5086878;28;20077;-90
2023/11/16 06:13:34;;;;;;;5.80;3.08;;;9.90;99.90;;;;;;5079447;28;20406;-90
2023/11/16 06:16:00;;;;;;;9.73;3.28;;;9.80;99.90;;;;;;5079293;28;20020;-90
2023/11/16 06:18:26;;;;;;;7.72;3.33;;;9.80;99.90;;;;;;5063756;28;20048;-90
2023/11/16 06:20:52;;;;;;;5.63;3.15;;;9.80;99.90;;;;;;5082656;28;20032;-90
2023/11/16 06:23:18;;;;;;;8.00;3.40;;;9.80;99.90;;;;;;5101229;28;20024;-91
2023/11/16 06:25:44;;;;;;;7.50;3.60;;;9.80;99.90;;;;;;5090493;28;20035;-89
2023/11/16 06:28:10;;;;;;;6.88;3.47;;;9.80;99.90;;;;;;5101055;28;20115;-92
2023/11/16 06:30:39;;;;;;;6.57;3.75;;;9.70;99.90;;;;;;5101237;28;20051;-86
2023/11/16 06:33:04;;;;;;;7.07;3.55;;;9.70;99.90;;;;;;5092736;28;20383;-90
2023/11/16 06:35:33;;;;;;;7.82;3.83;;;9.70;99.90;;;;;;5099534;28;20024;-90
2023/11/16 06:38:19;;;;;;;;;;;;;;;;;;;;;
2023/11/16 06:41:03;;;;;;;4.78;3.38;;;9.70;99.90;;;;;;5080397;28;20035;-88
2023/11/16 06:43:29;;;;;;;7.00;3.85;;;9.70;99.90;;;;;;5079482;28;20022;-90
2023/11/16 06:45:59;;;;;;;5.78;3.55;;;9.70;99.90;;;;;;5078614;28;20047;-89
2023/11/16 06:48:26;;;;;;;4.73;3.00;;;9.60;99.90;;;;;;5079242;28;20119;-89
2023/11/16 06:50:56;;;;;;;6.60;3.80;;;9.60;99.90;;;;;;5078730;28;20028;-89
2023/11/16 06:53:24;;;;;;;6.30;3.30;;;9.60;99.90;;;;;;5062704;28;20024;-89
2023/11/16 06:55:52;;;;;;;5.72;3.60;;;9.50;99.90;;;;;;5078529;28;20270;-91
2023/11/16 06:58:22;;;;;;;5.57;3.50;;;9.50;99.90;;;;;;5078262;28;20060;-91
2023/11/16 07:00:54;;;;;;;8.10;3.78;;;9.50;99.90;;;;;;5077836;28;20057;-89
2023/11/16 07:03:25;;;;;;;7.07;3.75;;;9.40;99.90;;;;;;5062103;28;20375;-89
2023/11/16 07:05:54;;;;;;;7.13;3.28;;;9.40;99.90;;;;;;5078348;28;20032;-89
2023/11/16 07:08:20;;;;;;;5.80;3.35;;;9.40;99.90;;;;;;5078510;28;20032;-89
2023/11/16 07:10:53;;;;;;;7.30;3.80;;;9.40;99.90;;;;;;5061370;28;20032;-90
2023/11/16 07:13:22;;;;;;;4.10;3.13;;;9.30;99.90;;;;;;5061300;28;20115;-90
2023/11/16 07:15:49;;;;;;;5.20;3.00;;;9.30;99.90;;;;;;5096194;28;20034;-91
2023/11/16 07:18:20;;;;;;;6.22;3.67;;;9.20;99.90;;;;;;5061490;28;20091;-90
2023/11/16 07:20:48;;;;;;;;;;;9.20;99.90;;;;;;5061744;28;20055;-90
2023/11/16 07:23:19;;;;;;;6.55;3.38;;;9.10;99.90;;;;;;5060538;28;19930;-89
2023/11/16 07:25:48;;;;;;;6.17;3.53;;;9.10;99.90;;;;;;5061335;28;20032;-89
2023/11/16 07:28:25;;;;;;;5.88;4.00;;;9.10;99.90;;;;;;5078328;28;20035;-90
2023/11/16 07:30:52;;;;;;;5.35;3.40;;;9.10;99.90;;;;;;5078086;28;20383;-89
2023/11/16 07:33:18;;;;;;;8.70;4.22;;;9.10;99.90;;;;;;5078146;28;20486;-89
2023/11/16 07:35:55;;;;;;;7.50;4.10;;;9.00;99.90;;;;;;5077564;28;20082;-90
2023/11/16 07:38:28;;;;;;;7.30;3.95;;;9.00;99.90;;;;;;5077752;28;20024;-89
2023/11/16 07:40:57;;;;;;;11.02;4.40;;;9.00;99.90;;;;;;5061773;28;20032;-89
2023/11/16 07:43:26;;;;;;;6.50;4.20;;;9.00;99.90;;;;;;5078228;28;20028;-90
2023/11/16 07:45:52;;;;;;;6.18;3.60;;;8.90;99.90;;;;;;5077376;28;20059;-89
2023/11/16 07:48:19;;;;;;;6.07;4.20;;;8.90;99.90;;;;;;5077579;28;20030;-89
2023/11/16 07:50:51;;;;;;;7.57;4.18;;;8.90;99.90;;;;;;5076948;28;20153;-87
2023/11/16 07:53:24;;;;;;;7.05;4.43;;;8.90;99.90;;;;;;5077750;28;20126;-89
2023/11/16 07:55:53;;;;;;;9.38;4.82;;;8.90;99.90;;;;;;5078977;28;20026;-89
2023/11/16 07:58:22;;;;;;;7.80;4.70;;;8.90;99.90;;;;;;5094899;28;20015;-88
2023/11/16 08:01:04;;;;;;;7.43;4.40;;;8.90;99.90;;;;;;5100280;28;20113;-86
2023/11/16 08:03:42;;;;;;;8.63;4.97;;;8.90;99.90;;;;;;5101337;28;20050;-90
2023/11/16 08:06:18;;;;;;;6.07;4.13;;;8.90;99.90;;;;;;5099554;28;20027;-89
2023/11/16 08:08:49;;;;;;;6.47;4.45;;;8.90;99.90;;;;;;5065145;28;20039;-89
2023/11/16 08:11:16;;;;;;;7.53;4.68;;;8.90;99.90;;;;;;5062811;28;20036;-89
2023/11/16 08:13:45;;;;;;;6.18;4.32;;;8.90;99.90;;;;;;5077693;28;20016;-89
2023/11/16 08:16:20;;;;;;;5.97;4.25;;;9.00;99.90;;;;;;5077374;28;20035;-90
2023/11/16 08:18:49;;;;;;;8.52;4.68;;;8.90;99.90;;;;;;5077229;28;20024;-89
2023/11/16 08:21:18;;;;;;;6.93;4.63;;;8.90;99.90;;;;;;5076949;28;20442;-90
2023/11/16 08:23:48;;;;;;;6.45;4.50;;;9.00;99.90;;;;;;5094746;28;20028;-89
2023/11/16 08:26:17;;;;;;;9.57;5.50;;;9.00;99.90;;;;;;5060323;28;20066;-90
2023/11/16 08:28:46;;;;;;;7.93;5.18;;;9.00;99.90;;;;;;5077038;28;20031;-88
2023/11/16 08:31:15;;;;;;;9.32;5.25;;;9.10;99.90;;;;;;5076481;28;20473;-90
2023/11/16 08:33:51;;;;;;;8.35;5.45;;;9.10;99.90;;;;;;5076507;28;20035;-89
2023/11/16 08:36:25;;;;;;;9.32;4.93;;;9.10;99.90;;;;;;5076888;28;20028;-88
2023/11/16 08:38:51;;;;;;;8.02;5.30;;;9.20;99.90;;;;;;5094751;28;20073;-90
2023/11/16 08:41:17;;;;;;;8.07;5.05;;;9.20;99.90;;;;;;5076533;28;20032;-89
2023/11/16 08:43:47;;;;;;;8.43;5.70;;;9.20;99.90;;;;;;5076015;28;20375;-90
2023/11/16 08:46:24;;;;;;;12.52;5.80;;;9.20;99.90;;;;;;5076389;28;20111;-89
2023/11/16 08:48:53;;;;;;;9.52;5.22;;;9.20;99.90;;;;;;5077922;28;20111;-89
2023/11/16 08:51:23;;;;;;;9.27;5.65;;;9.20;99.90;;;;;;5076475;28;20020;-88
2023/11/16 08:53:54;;;;;;;7.75;5.47;;;9.30;99.90;;;;;;5076726;28;20020;-90
2023/11/16 08:56:22;;;;;;;;;;;9.20;99.90;;;;;;5094918;28;20020;-89
2023/11/16 08:58:53;;;;;;;8.48;5.90;;;9.30;99.90;;;;;;5076445;28;19904;-88
2023/11/16 09:01:23;;;;;;;8.02;5.57;;;9.30;99.90;;;;;;5076055;28;20054;-89
2023/11/16 09:03:50;;;;;;;8.07;5.55;;;9.30;99.90;;;;;;5076678;28;20095;-90
2023/11/16 09:06:21;;;;;;;9.25;5.80;;;9.30;99.90;;;;;;5059541;28;20020;-88
2023/11/16 09:08:48;;;;;;;;;;;9.40;99.90;;;;;;5077607;28;20116;-90
2023/11/16 09:11:19;;;;;;;8.25;5.75;;;9.40;99.90;;;;;;5076190;28;19918;-90
2023/11/16 09:13:50;;;;;;;8.35;5.70;;;9.40;99.90;;;;;;5094240;28;20030;-89
2023/11/16 09:16:15;;;;;;;9.13;6.07;;;9.40;99.90;;;;;;5075894;28;20036;-89
2023/11/16 09:18:52;;;;;;;11.02;6.78;;;9.40;99.90;;;;;;5060050;28;20024;-88
2023/11/16 09:21:25;;;;;;;9.98;6.75;;;9.50;99.90;;;;;;5076776;28;20058;-90
2023/11/16 09:23:54;;;;;;;11.63;7.28;;;9.50;99.90;;;;;;5078659;28;20031;-90
2023/11/16 09:26:23;;;;;;;10.65;7.05;;;9.50;99.90;;;;;;5082410;28;20016;-89
2023/11/16 09:28:52;;;;;;;11.90;8.40;;;9.50;99.90;;;;;;5081652;28;20080;-88
2023/11/16 09:31:18;;;;;;;11.88;8.30;;;9.50;99.90;;;;;;5080221;28;20017;-90
2023/11/16 09:33:54;;;;;;;10.38;7.53;;;9.60;99.90;;;;;;5080206;28;20040;-88
2023/11/16 09:36:29;;;;;;;10.80;8.20;;;9.60;99.90;;;;;;5076736;28;20058;-88
2023/11/16 09:38:57;;;;;;;14.45;9.13;;;9.60;99.90;;;;;;5040968;28;20024;-90
2023/11/16 09:41:30;;;;;;;12.68;7.90;;;9.70;99.90;;;;;;5039838;28;20029;-90
2023/11/16 09:44:10;;;;;;;12.65;7.45;;;9.70;99.90;;;;;;5056292;28;20506;-88
2023/11/16 09:46:38;;;;;;;10.63;8.18;;;9.70;99.90;;;;;;5042045;28;20055;-90
2023/11/16 09:49:14;;;;;;;12.30;7.85;;;9.80;99.90;;;;;;5059786;28;20035;-89
2023/11/16 09:51:41;;;;;;;15.98;8.82;;;9.80;99.90;;;;;;5060817;28;20024;-90
2023/11/16 09:54:10;;;;;;;14.07;8.00;;;9.80;99.90;;;;;;5059686;28;20087;-89
2023/11/16 09:56:40;;;;;;;11.48;8.25;;;9.80;99.90;;;;;;5059683;28;20029;-91
2023/11/16 09:59:27;;;;;;;12.07;8.30;;;9.80;99.90;;;;;;5059397;28;20476;-90
2023/11/16 10:02:08;;;;;;;12.05;8.23;;;9.80;99.90;;;;;;5062565;28;20377;-90
2023/11/16 10:04:47;;;;;;;13.65;8.90;;;9.90;99.90;;;;;;5059830;28;20468;-89
2023/11/16 10:07:16;;;;;;;14.88;8.65;;;9.90;99.90;;;;;;5059488;28;20012;-89
2023/11/16 10:09:53;;;;;;;11.82;8.57;;;9.90;99.90;;;;;;5059270;28;20536;-90
2023/11/16 10:12:20;;;;;;;15.00;9.20;;;10.00;99.90;;;;;;5059152;28;20029;-90
2023/11/16 10:14:52;;;;;;;13.93;9.18;;;10.00;99.90;;;;;;5058963;28;20016;-90
2023/11/16 10:17:24;;;;;;;16.42;9.38;;;10.00;99.90;;;;;;5059187;28;20025;-89
2023/11/16 10:19:53;;;;;;;14.43;9.13;;;10.00;99.90;;;;;;5059096;28;20029;-91
2023/11/16 10:22:21;;;;;;;17.20;10.20;;;10.00;99.90;;;;;;5059114;28;20021;-89
2023/11/16 10:24:55;;;;;;;12.85;9.40;;;10.10;99.90;;;;;;5059100;28;20027;-89
2023/11/16 10:27:30;;;;;;;14.65;10.38;;;10.00;99.90;;;;;;5043189;28;20431;-91
2023/11/16 10:30:06;;;;;;;;;;;;;;;;;;;;;
2023/11/16 10:32:35;;;;;;;17.25;11.23;;;10.10;99.90;;;;;;5077459;28;20024;-89
2023/11/16 10:35:06;;;;;;;15.10;10.73;;;10.10;99.90;;;;;;5059759;28;20468;-90
2023/11/16 10:37:36;;;;;;;16.75;11.75;;;10.10;99.90;;;;;;5058996;28;20021;-90
2023/11/16 10:40:12;;;;;;;15.93;11.50;;;10.10;99.90;;;;;;5059267;28;20060;-89
2023/11/16 10:42:41;;;;;;;15.32;11.80;;;10.10;99.90;;;;;;5076892;28;20448;-90
2023/11/16 10:45:15;;;;;;;17.50;11.77;;;10.10;99.90;;;;;;5058691;28;20024;-90
2023/11/16 10:47:44;;;;;;;17.50;11.50;;;10.10;99.90;;;;;;5059223;28;20021;-90
2023/11/16 10:50:17;;;;;;;16.27;11.55;;;10.10;99.90;;;;;;5058699;28;20029;-89
2023/11/16 10:52:43;;;;;;;16.50;12.20;;;10.10;99.90;;;;;;5042513;28;20054;-89
2023/11/16 10:55:24;;;;;;;18.17;12.70;;;10.10;99.90;;;;;;5058884;28;20024;-90
2023/11/16 10:58:04;;;;;;;20.50;13.32;;;10.10;99.90;;;;;;5043665;28;20025;-90
2023/11/16 11:00:34;;;;;;;18.50;12.88;;;10.00;99.90;;;;;;5063144;28;20144;-90
2023/11/16 11:03:13;;;;;;;20.40;14.10;;;10.00;99.90;;;;;;5075453;28;20027;-89
2023/11/16 11:05:59;;;;;;;;;;;;;;;;;;;;;
2023/11/16 11:08:43;;;;;;;22.58;15.60;;;10.00;99.90;;;;;;5099542;28;20020;-89
2023/11/16 11:11:12;;;;;;;21.15;14.55;;;10.00;99.90;;;;;;5080954;28;20020;-89
2023/11/16 11:13:46;;;;;;;22.00;15.00;;;9.90;99.90;;;;;;5076174;28;20391;-90
2023/11/16 11:16:15;;;;;;;23.65;14.88;;;9.90;99.90;;;;;;5058510;28;20024;-90
2023/11/16 11:18:51;;;;;;;20.23;13.63;;;9.90;99.90;;;;;;5058548;28;20029;-89
2023/11/16 11:21:21;;;;;;;18.02;13.07;;;9.90;99.90;;;;;;5042381;28;20135;-90
2023/11/16 11:24:20;;;;;;;17.10;13.47;;;9.90;99.90;;;;;;5058312;28;20540;-91
2023/11/16 11:27:09;;;;;;;17.92;11.65;;;9.80;99.90;;;;;;5004378;28;20766;-92
2023/11/16 11:29:34;;;;;;;18.08;11.82;;;9.80;99.90;;;;;;5074757;28;20040;-90
2023/11/16 11:32:17;;;;;;;18.52;12.05;;;9.80;99.90;;;;;;5057730;28;20028;-89
2023/11/16 11:34:51;;;;;;;14.27;10.57;;;9.80;99.90;;;;;;5057875;28;20115;-89
2023/11/16 11:37:20;;;;;;;13.68;9.55;;;9.80;99.90;;;;;;5041076;28;20056;-90
2023/11/16 11:39:55;;;;;;;15.23;9.88;;;9.80;99.90;;;;;;5041008;28;20029;-89
2023/11/16 11:42:34;;;;;;;;;;;;;;;;;;;;;
2023/11/16 11:45:00;;;;;;;14.05;9.30;;;9.80;99.90;;;;;;5075653;28;20028;-89
2023/11/16 11:47:32;;;;;;;12.57;9.13;;;9.80;99.90;;;;;;5057419;28;20120;-89
2023/11/16 11:50:02;;;;;;;13.73;8.70;;;9.80;99.90;;;;;;5041520;28;20025;-89
2023/11/16 11:52:34;;;;;;;15.82;9.68;;;9.80;99.90;;;;;;5058011;28;20017;-91
2023/11/16 11:55:00;;;;;;;13.88;9.35;;;9.80;99.90;;;;;;5041825;28;20036;-91
2023/11/16 11:57:31;;;;;;;14.02;8.15;;;9.80;99.90;;;;;;5057575;28;20434;-89
2023/11/16 12:00:06;;;;;;;14.35;9.70;;;9.80;99.90;;;;;;5075525;28;20529;-90
2023/11/16 12:02:33;;;;;;;13.60;8.90;;;9.80;99.90;;;;;;5056979;28;20028;-91
2023/11/16 12:04:59;;;;;;;12.40;8.52;;;9.70;99.90;;;;;;5057342;28;20513;-90
2023/11/16 12:07:25;;;;;;;15.82;9.57;;;9.80;99.90;;;;;;5056807;28;20032;-90
2023/11/16 12:09:58;;;;;;;14.13;9.45;;;9.80;99.90;;;;;;5057060;28;20032;-89
2023/11/16 12:12:29;;;;;;;15.77;9.52;;;9.70;99.90;;;;;;5057363;28;20077;-91
2023/11/16 12:14:57;;;;;;;14.55;8.82;;;9.70;99.90;;;;;;5057025;28;20040;-89
2023/11/16 12:17:33;;;;;;;14.40;9.27;;;9.70;99.90;;;;;;5056846;28;20029;-90
2023/11/16 12:20:03;;;;;;;16.13;10.25;;;9.70;99.90;;;;;;5074959;28;20054;-90
2023/11/16 12:22:31;;;;;;;13.82;9.82;;;9.70;99.90;;;;;;5056511;28;20029;-91
2023/11/16 12:25:08;;;;;;;14.52;9.45;;;9.70;99.90;;;;;;5057088;28;20048;-90
2023/11/16 12:27:43;;;;;;;17.77;10.82;;;9.70;99.90;;;;;;5072344;28;20455;-89
2023/11/16 12:30:22;;;;;;;16.45;9.48;;;9.70;99.90;;;;;;5063118;28;20036;-89
2023/11/16 12:32:55;;;;;;;14.30;9.70;;;9.70;99.90;;;;;;5092916;28;20016;-89
2023/11/16 12:35:20;;;;;;;16.88;9.95;;;9.70;99.90;;;;;;5118092;28;20009;-87
2023/11/16 12:37:46;;;;;;;17.13;10.40;;;9.70;99.90;;;;;;5101297;28;20014;-90
2023/11/16 12:40:19;;;;;;;16.08;10.25;;;9.70;99.90;;;;;;5100506;28;20055;-89
2023/11/16 12:42:47;;;;;;;14.80;9.75;;;9.70;99.90;;;;;;5081043;28;20108;-90
2023/11/16 12:45:16;;;;;;;17.20;10.98;;;9.70;99.90;;;;;;5078496;28;20020;-89
2023/11/16 12:47:51;;;;;;;17.40;12.23;;;9.70;99.90;;;;;;5060916;28;20089;-91
2023/11/16 12:50:26;;;;;;;16.67;11.70;;;9.70;99.90;;;;;;5077169;28;20034;-89
2023/11/16 12:53:00;;;;;;;15.60;11.23;;;9.70;99.90;;;;;;5076955;28;20050;-91
2023/11/16 12:55:42;;;;;;;17.67;12.35;;;9.60;99.90;;;;;;5060547;28;20383;-90
2023/11/16 12:58:13;;;;;;;17.27;11.70;;;9.70;99.90;;;;;;5076942;28;20031;-89
2023/11/16 13:00:42;;;;;;;;;;;9.70;99.90;;;;;;5077118;28;20059;-90
2023/11/16 13:03:13;;;;;;;15.88;10.40;;;9.60;99.90;;;;;;5094537;28;19915;-90
2023/11/16 13:05:43;;;;;;;14.90;10.45;;;9.60;99.90;;;;;;5076464;28;20038;-89
2023/11/16 13:08:17;;;;;;;12.38;10.20;;;9.60;99.90;;;;;;5076961;28;20020;-89
2023/11/16 13:10:47;;;;;;;14.60;9.00;;;9.60;99.90;;;;;;5094478;28;20032;-89
2023/11/16 13:13:14;;;;;;;11.70;8.25;;;9.60;99.90;;;;;;5060287;28;20020;-90
2023/11/16 13:15:41;;;;;;;11.27;7.95;;;9.60;99.90;;;;;;5043145;28;20387;-89
2023/11/16 13:18:12;;;;;;;12.95;8.00;;;9.60;99.90;;;;;;5094270;28;20032;-89
2023/11/16 13:20:41;;;;;;;9.85;7.80;;;9.60;99.90;;;;;;5076628;28;20459;-89